Time;durP1;ratioP1;P1;durP2;ratioP2;P2;SDS_P1;SDS_P2;PMS_P1;PMS_P2;Temp;Humidity;BMP_temperature;BMP_pressure;BME280_temperature;BME280_humidity;BME280_pressure;Samples;Min_cycle;Max_cycle;Signal;HPM_P1;HPM_P2
2023/06/24 00:01:46;;;;;;;11.87;8.10;;;18.30;99.90;;;;;;5134674;28;20475;-52
2023/06/24 00:04:14;;;;;;;10.40;8.30;;;18.10;99.90;;;;;;5130907;28;20440;-58
2023/06/24 00:06:42;;;;;;;12.33;7.70;;;18.40;99.90;;;;;;5123833;28;20475;-58
2023/06/24 00:09:10;;;;;;;12.57;6.63;;;18.30;99.90;;;;;;5129738;28;20487;-54
2023/06/24 00:11:37;;;;;;;11.70;9.30;;;17.90;99.90;;;;;;5122641;28;20448;-55
2023/06/24 00:14:05;;;;;;;14.77;8.93;;;18.10;99.90;;;;;;5135038;28;20427;-57
2023/06/24 00:16:32;;;;;;;13.57;8.53;;;18.30;99.90;;;;;;5127555;28;20451;-59
2023/06/24 00:19:00;;;;;;;16.90;7.50;;;;;;;;;;5134745;28;20474;-58
2023/06/24 00:21:29;;;;;;;11.30;8.90;;;;;;;;;;5139036;28;20464;-58
2023/06/24 00:23:57;;;;;;;13.00;10.00;;;18.20;99.90;;;;;;5139820;28;20444;-58
2023/06/24 00:26:25;;;;;;;14.03;9.73;;;17.90;99.90;;;;;;5138930;28;20456;-56
2023/06/24 00:28:52;;;;;;;14.33;8.67;;;18.30;99.90;;;;;;5151622;27;20506;-58
2023/06/24 00:31:20;;;;;;;12.50;9.17;;;18.10;99.90;;;;;;5159284;27;20468;-53
2023/06/24 00:33:49;;;;;;;13.00;8.63;;;;;;;;;;5158173;27;20440;-54
2023/06/24 00:36:16;;;;;;;11.90;9.67;;;18.20;99.90;;;;;;5159082;27;20456;-59
2023/06/24 00:38:43;;;;;;;14.80;10.47;;;18.20;99.90;;;;;;5159264;27;20444;-55
2023/06/24 00:41:10;;;;;;;16.80;11.07;;;;;;;;;;5159218;27;20514;-58
2023/06/24 00:43:39;;;;;;;19.60;11.37;;;18.20;99.90;;;;;;5145947;27;20459;-56
2023/06/24 00:46:07;;;;;;;12.97;10.80;;;18.10;99.90;;;;;;5150325;27;20436;-59
2023/06/24 00:48:34;;;;;;;15.93;12.23;;;18.00;99.90;;;;;;5138529;28;20476;-59
2023/06/24 00:51:02;;;;;;;17.37;11.67;;;18.00;99.90;;;;;;5137941;28;20460;-58
2023/06/24 00:53:29;;;;;;;16.57;11.40;;;;;;;;;;5138207;28;20436;-57
2023/06/24 00:56:01;;;;;;;19.03;13.07;;;18.00;99.90;;;;;;5137449;28;20447;-58
2023/06/24 00:58:32;;;;;;;18.33;12.40;;;18.00;99.90;;;;;;5148500;27;20424;-59
2023/06/24 01:01:03;;;;;;;16.63;12.20;;;17.90;99.90;;;;;;5159182;27;20424;-65
2023/06/24 01:03:31;;;;;;;24.63;14.30;;;;;;;;;;5154739;27;20532;-60
2023/06/24 01:05:59;;;;;;;25.90;13.20;;;18.00;99.90;;;;;;5144509;27;20452;-58
2023/06/24 01:08:26;;;;;;;16.60;11.47;;;18.00;99.90;;;;;;5144141;27;20526;-60
2023/06/24 01:10:53;;;;;;;18.00;12.60;;;;;;;;;;5152235;27;20424;-58
2023/06/24 01:13:20;;;;;;;17.40;12.73;;;18.00;99.90;;;;;;5154605;27;20432;-59
2023/06/24 01:15:47;;;;;;;18.77;12.90;;;17.60;99.90;;;;;;5144964;27;20578;-59
2023/06/24 01:18:25;;;;;;;16.50;12.27;;;17.80;99.90;;;;;;5145562;27;20464;-58
2023/06/24 01:20:59;;;;;;;15.83;12.50;;;17.70;99.90;;;;;;5145016;27;20538;-58
2023/06/24 01:24:09;;;;;;;17.53;11.13;;;17.60;99.90;;;;;;5152697;27;20424;-56
2023/06/24 01:27:11;;;;;;;23.10;12.50;;;17.70;99.90;;;;;;5157234;27;20420;-55
2023/06/24 01:30:04;;;;;;;17.90;13.37;;;17.50;99.90;;;;;;5105290;28;20513;-54
2023/06/24 01:32:36;;;;;;;15.13;12.00;;;17.60;99.90;;;;;;5135979;28;20433;-55
2023/06/24 01:35:10;;;;;;;20.13;12.10;;;17.40;99.90;;;;;;5137196;28;20454;-58
2023/06/24 01:37:43;;;;;;;13.17;10.23;;;17.40;99.90;;;;;;5136916;28;20488;-57
2023/06/24 01:40:15;;;;;;;15.47;11.10;;;17.50;99.90;;;;;;5136676;28;20440;-56
2023/06/24 01:42:44;;;;;;;16.17;10.50;;;17.50;99.90;;;;;;5136295;28;20440;-51
2023/06/24 01:45:15;;;;;;;17.30;11.87;;;17.40;99.90;;;;;;5136652;28;20437;-57
2023/06/24 01:47:47;;;;;;;17.10;10.97;;;18.20;99.90;;;;;;5128117;28;20425;-54
2023/06/24 01:50:17;;;;;;;15.37;11.47;;;17.40;99.90;;;;;;5136176;28;20457;-52
2023/06/24 01:52:45;;;;;;;15.13;10.30;;;17.40;99.90;;;;;;5135553;28;20460;-53
2023/06/24 01:55:19;;;;;;;14.03;10.73;;;17.60;99.90;;;;;;5136510;28;20436;-55
2023/06/24 01:57:49;;;;;;;15.23;11.47;;;17.40;99.90;;;;;;5141083;27;20455;-52
2023/06/24 02:00:17;;;;;;;16.20;11.53;;;17.50;99.90;;;;;;5151653;27;20787;-54
2023/06/24 02:02:47;;;;;;;12.90;9.90;;;17.30;99.90;;;;;;5157349;27;20451;-53
2023/06/24 02:05:17;;;;;;;13.47;10.13;;;17.40;99.90;;;;;;5156531;27;20479;-58
2023/06/24 02:07:45;;;;;;;17.57;11.53;;;17.20;99.90;;;;;;5155384;27;20428;-60
2023/06/24 02:10:16;;;;;;;18.73;12.37;;;17.60;99.90;;;;;;5157172;27;20473;-60
2023/06/24 02:12:46;;;;;;;14.10;10.77;;;17.30;99.90;;;;;;5157643;27;20416;-57
2023/06/24 02:15:13;;;;;;;16.87;11.73;;;17.30;99.90;;;;;;5155914;27;20513;-56
2023/06/24 02:17:40;;;;;;;15.30;11.10;;;17.00;99.90;;;;;;5155850;27;20486;-55
2023/06/24 02:20:11;;;;;;;21.57;13.27;;;17.30;99.90;;;;;;5156538;27;20450;-58
2023/06/24 02:22:40;;;;;;;15.07;11.00;;;17.30;99.90;;;;;;5156469;27;20419;-54
2023/06/24 02:25:09;;;;;;;15.30;10.53;;;17.30;99.90;;;;;;5138547;27;20466;-59
2023/06/24 02:27:37;;;;;;;14.23;10.00;;;17.20;99.90;;;;;;5134803;28;20448;-54
2023/06/24 02:30:08;;;;;;;15.50;9.77;;;17.00;99.90;;;;;;5136373;28;20494;-54
2023/06/24 02:32:38;;;;;;;11.23;9.73;;;17.30;99.90;;;;;;5136034;28;20413;-61
2023/06/24 02:35:06;;;;;;;14.90;11.93;;;17.00;99.90;;;;;;5134898;28;20464;-55
2023/06/24 02:37:34;;;;;;;12.03;8.07;;;16.70;99.90;;;;;;5135246;28;20456;-53
2023/06/24 02:40:03;;;;;;;11.23;9.17;;;16.90;99.90;;;;;;5135695;27;20433;-53
2023/06/24 02:42:30;;;;;;;17.33;10.07;;;17.20;99.90;;;;;;5123958;27;20457;-58
2023/06/24 02:44:58;;;;;;;13.30;9.60;;;17.10;99.90;;;;;;5123575;28;20444;-58
2023/06/24 02:47:25;;;;;;;15.33;8.90;;;16.90;99.90;;;;;;5132933;28;20449;-58
2023/06/24 02:49:54;;;;;;;25.10;10.43;;;17.20;99.90;;;;;;5136109;28;20533;-52
2023/06/24 02:52:21;;;;;;;11.67;8.50;;;16.90;99.90;;;;;;5135925;28;20448;-55
2023/06/24 02:54:50;;;;;;;11.70;8.30;;;17.00;99.90;;;;;;5143094;27;20442;-58
2023/06/24 02:57:20;;;;;;;18.00;9.80;;;16.90;99.90;;;;;;5143677;27;20451;-59
2023/06/24 02:59:47;;;;;;;13.30;9.40;;;17.00;99.90;;;;;;5123329;28;20440;-59
2023/06/24 03:02:15;;;;;;;16.90;8.60;;;16.80;99.90;;;;;;5122386;28;20452;-59
2023/06/24 03:04:43;;;;;;;15.13;7.93;;;;;;;;;;5130313;28;20519;-58
2023/06/24 03:07:11;;;;;;;9.97;8.03;;;17.20;99.90;;;;;;5125656;28;20521;-55
2023/06/24 03:09:38;;;;;;;15.93;7.70;;;;;;;;;;5133103;28;20476;-53
2023/06/24 03:12:07;;;;;;;19.23;8.27;;;16.80;99.90;;;;;;5123452;28;20523;-57
2023/06/24 03:14:34;;;;;;;9.83;7.10;;;16.80;99.90;;;;;;5118811;28;20460;-57
2023/06/24 03:17:04;;;;;;;12.20;8.00;;;16.70;99.90;;;;;;5126354;28;20530;-58
2023/06/24 03:19:31;;;;;;;15.07;7.93;;;16.90;99.90;;;;;;5130628;28;20529;-57
2023/06/24 03:21:57;;;;;;;19.90;8.00;;;16.80;99.90;;;;;;5127591;28;20823;-56
2023/06/24 03:24:25;;;;;;;10.60;8.60;;;;;;;;;;5127780;28;20484;-59
2023/06/24 03:26:56;;;;;;;14.67;8.17;;;16.90;99.90;;;;;;5126139;28;20448;-55
2023/06/24 03:29:25;;;;;;;15.60;8.20;;;16.60;99.90;;;;;;5123424;28;20476;-62
2023/06/24 03:31:52;;;;;;;10.07;8.30;;;;;;;;;;5135181;28;20461;-58
2023/06/24 03:34:19;;;;;;;14.27;9.07;;;16.80;99.90;;;;;;5135399;28;20452;-52
2023/06/24 03:36:46;;;;;;;10.13;7.70;;;16.90;99.90;;;;;;5135528;28;20449;-59
2023/06/24 03:39:13;;;;;;;11.97;7.80;;;16.60;99.90;;;;;;5118941;28;20551;-55
2023/06/24 03:41:40;;;;;;;11.00;8.13;;;17.10;99.90;;;;;;5123486;28;20460;-55
2023/06/24 03:44:06;;;;;;;13.30;8.37;;;16.60;99.90;;;;;;5128690;28;20963;-53
2023/06/24 03:46:35;;;;;;;15.33;7.97;;;16.80;99.90;;;;;;5126627;28;20472;-56
2023/06/24 03:49:02;;;;;;;12.50;7.93;;;;;;;;;;5122747;28;20484;-57
2023/06/24 03:51:29;;;;;;;11.57;7.30;;;17.50;99.90;;;;;;5119077;28;20440;-57
2023/06/24 03:53:56;;;;;;;8.17;7.10;;;;;;;;;;5126971;28;20455;-52
2023/06/24 03:56:23;;;;;;;12.20;7.77;;;16.90;99.90;;;;;;5126372;28;20853;-57
2023/06/24 03:58:50;;;;;;;9.27;7.70;;;16.70;99.90;;;;;;5140502;27;20494;-55
2023/06/24 04:01:19;;;;;;;12.90;8.63;;;16.50;99.90;;;;;;5143378;27;20475;-56
2023/06/24 04:03:50;;;;;;;8.10;7.00;;;16.60;99.90;;;;;;5144759;27;20575;-57
2023/06/24 04:06:17;;;;;;;17.43;8.90;;;16.60;99.90;;;;;;5143224;27;20487;-56
2023/06/24 04:08:44;;;;;;;12.90;9.10;;;16.60;99.90;;;;;;5146241;27;20991;-58
2023/06/24 04:11:11;;;;;;;16.80;7.80;;;16.80;99.90;;;;;;5146911;27;20471;-54
2023/06/24 04:13:38;;;;;;;12.97;7.93;;;17.20;99.90;;;;;;5146146;27;20444;-56
2023/06/24 04:16:06;;;;;;;10.90;7.53;;;;;;;;;;5144459;27;20499;-57
2023/06/24 04:18:33;;;;;;;13.47;7.67;;;16.70;99.90;;;;;;5139967;27;20444;-57
2023/06/24 04:21:01;;;;;;;13.80;8.33;;;16.50;99.90;;;;;;5138318;27;20531;-57
2023/06/24 04:23:28;;;;;;;12.90;7.90;;;16.70;99.90;;;;;;5144482;27;20453;-56
2023/06/24 04:25:54;;;;;;;16.83;8.13;;;16.10;99.90;;;;;;5143975;27;20439;-54
2023/06/24 04:28:21;;;;;;;12.37;8.30;;;17.20;99.90;;;;;;5133727;27;20507;-55
2023/06/24 04:30:48;;;;;;;12.50;7.10;;;;;;;;;;5123065;28;20555;-55
2023/06/24 04:33:15;;;;;;;14.60;7.50;;;16.30;99.90;;;;;;5123482;28;20460;-56
2023/06/24 04:35:43;;;;;;;10.47;7.87;;;16.50;99.90;;;;;;5146519;27;20428;-55
2023/06/24 04:38:11;;;;;;;11.90;8.77;;;16.60;99.90;;;;;;5143360;27;20451;-56
2023/06/24 04:40:38;;;;;;;14.50;8.53;;;;;;;;;;5146507;27;20487;-56
2023/06/24 04:43:06;;;;;;;10.67;8.13;;;;;;;;;;5145716;27;20534;-53
2023/06/24 04:45:32;;;;;;;11.20;7.73;;;16.70;99.90;;;;;;5143764;27;20975;-55
2023/06/24 04:47:59;;;;;;;12.90;8.50;;;16.80;99.90;;;;;;5141610;27;20527;-57
2023/06/24 04:50:26;;;;;;;11.80;6.80;;;16.50;99.90;;;;;;5145213;27;20526;-54
2023/06/24 04:52:54;;;;;;;11.87;8.10;;;16.30;99.90;;;;;;5145108;27;20478;-57
2023/06/24 04:55:23;;;;;;;10.50;7.67;;;16.60;99.90;;;;;;5143751;27;20451;-55
2023/06/24 04:57:50;;;;;;;9.80;7.27;;;;;;;;;;5142736;27;20507;-56
2023/06/24 05:00:17;;;;;;;10.43;7.00;;;17.00;99.90;;;;;;5122504;28;20481;-56
2023/06/24 05:02:45;;;;;;;12.30;8.13;;;16.70;99.90;;;;;;5121311;28;20523;-55
2023/06/24 05:05:12;;;;;;;13.00;8.97;;;16.70;99.90;;;;;;5125368;28;20465;-51
2023/06/24 05:07:40;;;;;;;16.40;9.10;;;;;;;;;;5126714;28;20440;-56
2023/06/24 05:10:07;;;;;;;10.77;7.70;;;16.90;99.90;;;;;;5116957;28;21030;-54
2023/06/24 05:12:35;;;;;;;13.93;8.00;;;16.80;99.90;;;;;;5120099;28;20503;-55
2023/06/24 05:15:02;;;;;;;17.07;8.13;;;17.20;99.90;;;;;;5126619;28;20464;-55
2023/06/24 05:17:31;;;;;;;11.03;8.10;;;16.80;99.90;;;;;;5130594;28;20488;-54
2023/06/24 05:19:58;;;;;;;10.90;7.80;;;16.90;99.90;;;;;;5127162;28;20440;-54
2023/06/24 05:22:25;;;;;;;11.53;7.67;;;17.30;99.90;;;;;;5124228;28;20467;-55
2023/06/24 05:24:52;;;;;;;10.43;6.63;;;16.70;99.90;;;;;;5127040;28;20441;-56
2023/06/24 05:27:19;;;;;;;10.10;7.83;;;17.20;99.90;;;;;;5126018;27;20514;-56
2023/06/24 05:29:47;;;;;;;9.53;7.60;;;16.90;99.90;;;;;;5137160;27;20570;-57
2023/06/24 05:32:14;;;;;;;17.37;9.10;;;16.90;99.90;;;;;;5137537;27;20543;-54
2023/06/24 05:34:41;;;;;;;14.23;8.30;;;;;;;;;;5145353;27;20541;-56
2023/06/24 05:37:08;;;;;;;9.97;6.93;;;;;;;;;;5141513;27;20471;-55
2023/06/24 05:39:35;;;;;;;9.37;7.50;;;17.10;99.90;;;;;;5141672;27;20435;-55
2023/06/24 05:42:02;;;;;;;10.03;8.00;;;17.10;99.90;;;;;;5144596;27;20516;-56
2023/06/24 05:44:29;;;;;;;14.10;9.90;;;17.10;99.90;;;;;;5145858;27;20464;-55
2023/06/24 05:46:57;;;;;;;9.33;7.33;;;17.40;99.90;;;;;;5146154;27;20530;-58
2023/06/24 05:49:24;;;;;;;8.40;7.30;;;17.10;99.90;;;;;;5143051;27;20562;-56
2023/06/24 05:51:51;;;;;;;12.10;7.57;;;;;;;;;;5141616;27;20482;-56
2023/06/24 05:54:18;;;;;;;10.83;6.93;;;18.20;99.90;;;;;;5141582;27;20520;-55
2023/06/24 05:56:45;;;;;;;11.63;8.20;;;;;;;;;;5146210;27;20463;-55
2023/06/24 05:59:12;;;;;;;11.50;7.03;;;;;;;;;;5123120;27;20561;-57
2023/06/24 06:01:39;;;;;;;8.37;5.80;;;17.80;99.90;;;;;;5125455;28;20480;-56
2023/06/24 06:04:07;;;;;;;14.10;5.77;;;18.50;99.90;;;;;;5119287;28;20969;-57
2023/06/24 06:06:34;;;;;;;14.53;6.80;;;18.20;99.90;;;;;;5115647;28;20460;-57
2023/06/24 06:09:01;;;;;;;10.83;7.20;;;18.20;99.90;;;;;;5123775;28;20476;-52
2023/06/24 06:11:31;;;;;;;8.03;6.30;;;18.20;99.90;;;;;;5136305;28;20436;-55
2023/06/24 06:13:58;;;;;;;9.27;7.20;;;18.20;99.90;;;;;;5131271;28;20461;-55
2023/06/24 06:16:28;;;;;;;8.90;6.43;;;18.10;99.90;;;;;;5123489;28;20483;-52
2023/06/24 06:18:55;;;;;;;8.83;6.90;;;18.20;99.90;;;;;;5120422;28;20560;-53
2023/06/24 06:21:23;;;;;;;10.80;7.30;;;18.10;99.90;;;;;;5123894;28;20499;-58
2023/06/24 06:23:50;;;;;;;10.83;5.30;;;18.60;99.90;;;;;;5122740;28;20472;-56
2023/06/24 06:26:17;;;;;;;10.27;6.20;;;18.10;99.90;;;;;;5122428;28;20472;-52
2023/06/24 06:28:44;;;;;;;11.43;8.03;;;;;;;;;;5136402;27;20459;-54
2023/06/24 06:31:11;;;;;;;10.27;7.50;;;18.20;99.90;;;;;;5135927;27;20926;-53
2023/06/24 06:33:38;;;;;;;12.00;6.40;;;18.30;99.90;;;;;;5138520;27;20535;-54
2023/06/24 06:36:05;;;;;;;10.93;7.20;;;18.00;99.90;;;;;;5140351;27;20475;-55
2023/06/24 06:38:34;;;;;;;9.47;5.70;;;18.30;99.90;;;;;;5144077;27;20538;-52
2023/06/24 06:41:02;;;;;;;9.70;7.00;;;;;;;;;;5151520;27;20467;-53
2023/06/24 06:43:29;;;;;;;9.63;6.30;;;18.60;99.90;;;;;;5147712;27;20436;-55
2023/06/24 06:45:56;;;;;;;10.97;6.20;;;;;;;;;;5148276;27;20444;-54
2023/06/24 06:48:22;;;;;;;9.13;6.23;;;18.90;99.90;;;;;;5135744;27;20523;-56
2023/06/24 06:50:49;;;;;;;8.20;6.43;;;18.80;99.90;;;;;;5135403;27;20490;-55
2023/06/24 06:53:16;;;;;;;8.53;6.47;;;19.20;99.90;;;;;;5135434;27;20452;-54
2023/06/24 06:55:45;;;;;;;7.83;5.87;;;18.90;99.90;;;;;;5135701;27;20467;-57
2023/06/24 06:58:12;;;;;;;8.23;6.20;;;18.90;99.90;;;;;;5130134;27;20557;-55
2023/06/24 07:00:39;;;;;;;9.27;6.20;;;19.20;99.90;;;;;;5119676;28;20527;-52
2023/06/24 07:03:07;;;;;;;8.00;5.00;;;;;;;;;;5120928;28;20535;-57
2023/06/24 07:05:34;;;;;;;8.53;6.27;;;;;;;;;;5120616;28;20509;-57
2023/06/24 07:08:00;;;;;;;14.07;7.20;;;19.40;99.90;;;;;;5119724;28;20520;-56
2023/06/24 07:10:28;;;;;;;6.40;5.13;;;;;;;;;;5114248;28;20582;-53
2023/06/24 07:12:58;;;;;;;8.57;6.43;;;19.80;99.90;;;;;;5116971;28;20491;-57
2023/06/24 07:15:25;;;;;;;7.60;6.27;;;20.50;99.90;;;;;;5120888;28;20472;-57
2023/06/24 07:17:53;;;;;;;5.60;4.70;;;20.50;99.90;;;;;;5123539;28;20472;-55
2023/06/24 07:20:20;;;;;;;6.70;5.00;;;;;;;;;;5136091;28;20465;-54
2023/06/24 07:22:47;;;;;;;5.17;3.97;;;;;;;;;;5133889;28;20512;-57
2023/06/24 07:25:17;;;;;;;6.87;4.20;;;24.40;99.90;;;;;;5127776;28;20476;-52
2023/06/24 07:27:45;;;;;;;5.47;4.30;;;;;;;;;;5123065;28;20462;-58
2023/06/24 07:30:13;;;;;;;32.50;6.47;;;27.40;99.90;;;;;;5149376;27;20478;-59
2023/06/24 07:32:40;;;;;;;4.27;3.87;;;27.90;99.90;;;;;;5138874;27;20687;-57
2023/06/24 07:35:08;;;;;;;5.40;4.37;;;28.70;99.90;;;;;;5130279;27;20491;-57
2023/06/24 07:37:35;;;;;;;5.33;4.83;;;28.90;99.90;;;;;;5149470;27;20480;-58
2023/06/24 07:40:04;;;;;;;6.37;5.20;;;29.70;99.90;;;;;;5142926;27;20428;-55
2023/06/24 07:42:31;;;;;;;6.97;4.80;;;;;;;;;;5133668;27;20475;-58
2023/06/24 07:44:58;;;;;;;6.70;3.90;;;29.40;99.90;;;;;;5126309;27;20452;-55
2023/06/24 07:47:26;;;;;;;7.03;4.00;;;29.00;99.90;;;;;;5122154;28;20489;-58
2023/06/24 07:49:53;;;;;;;3.40;3.10;;;29.30;99.90;;;;;;5118739;27;20488;-56
2023/06/24 07:52:20;;;;;;;4.40;3.93;;;29.50;99.90;;;;;;5124898;27;20540;-57
2023/06/24 07:54:49;;;;;;;4.73;4.00;;;29.80;99.90;;;;;;5129206;27;20848;-56
2023/06/24 07:57:16;;;;;;;3.83;3.53;;;30.70;99.90;;;;;;5122024;28;20505;-55
2023/06/24 07:59:43;;;;;;;5.40;4.30;;;30.50;99.90;;;;;;5129467;27;20476;-53
2023/06/24 08:02:10;;;;;;;4.87;3.70;;;29.80;99.90;;;;;;5122215;28;20540;-56
2023/06/24 08:04:38;;;;;;;4.37;3.97;;;29.80;99.90;;;;;;5132288;27;20487;-56
2023/06/24 08:07:06;;;;;;;5.83;3.73;;;29.50;99.90;;;;;;5142705;27;20872;-54
2023/06/24 08:09:33;;;;;;;4.13;3.20;;;29.50;99.90;;;;;;5133840;27;20547;-51
2023/06/24 08:12:00;;;;;;;3.93;3.63;;;30.00;99.90;;;;;;5143548;27;20528;-53
2023/06/24 08:14:27;;;;;;;3.47;3.17;;;;;;;;;;5141649;27;20962;-53
2023/06/24 08:16:54;;;;;;;5.93;4.30;;;;;;;;;;5130559;27;20477;-54
2023/06/24 08:19:21;;;;;;;4.73;3.93;;;;;;;;;;5138722;27;20539;-53
2023/06/24 08:21:51;;;;;;;5.07;4.53;;;27.00;99.90;;;;;;5122940;27;20509;-56
2023/06/24 08:24:18;;;;;;;6.07;4.60;;;26.50;99.90;;;;;;5123491;28;20475;-57
2023/06/24 08:26:45;;;;;;;4.40;3.37;;;;;;;;;;5133713;27;20505;-57
2023/06/24 08:29:12;;;;;;;3.83;3.43;;;28.10;99.90;;;;;;5131613;28;20471;-58
2023/06/24 08:31:39;;;;;;;5.63;4.37;;;28.60;99.90;;;;;;5126714;27;20479;-56
2023/06/24 08:34:06;;;;;;;4.87;3.80;;;29.10;99.90;;;;;;5149660;27;20491;-55
2023/06/24 08:36:33;;;;;;;5.50;3.80;;;29.60;99.90;;;;;;5149010;27;20483;-54
2023/06/24 08:39:02;;;;;;;4.97;3.93;;;29.90;99.90;;;;;;5129347;28;20460;-56
2023/06/24 08:41:29;;;;;;;6.97;4.43;;;29.40;99.90;;;;;;5126522;28;20467;-53
2023/06/24 08:43:56;;;;;;;5.67;4.10;;;;;;;;;;5127861;28;20491;-59
2023/06/24 08:46:26;;;;;;;4.90;4.17;;;29.10;99.90;;;;;;5132596;28;20428;-55
2023/06/24 08:48:59;;;;;;;3.50;3.20;;;29.10;90.80;;;;;;5128547;27;20531;-56
2023/06/24 08:51:30;;;;;;;3.97;3.57;;;29.70;79.60;;;;;;5119917;28;21040;-57
2023/06/24 08:53:59;;;;;;;4.33;3.93;;;30.30;99.90;;;;;;5121372;28;20519;-56
2023/06/24 08:56:27;;;;;;;3.90;3.50;;;30.50;84.30;;;;;;5129011;27;20448;-56
2023/06/24 08:58:55;;;;;;;4.77;3.90;;;29.60;99.90;;;;;;5136007;27;20467;-55
2023/06/24 09:01:22;;;;;;;6.47;3.97;;;;;;;;;;5141167;27;20443;-57
2023/06/24 09:03:49;;;;;;;3.40;3.00;;;28.70;99.90;;;;;;5144009;27;20528;-56
2023/06/24 09:06:16;;;;;;;5.10;4.13;;;29.60;99.90;;;;;;5124983;28;20487;-56
2023/06/24 09:08:52;;;;;;;4.47;3.70;;;29.40;99.90;;;;;;5131681;27;20492;-57
2023/06/24 09:11:23;;;;;;;4.93;4.40;;;29.30;83.30;;;;;;5132766;27;20552;-57
2023/06/24 09:13:56;;;;;;;4.47;3.53;;;29.50;99.00;;;;;;5129511;28;20496;-53
2023/06/24 09:16:23;;;;;;;5.30;3.87;;;29.90;99.90;;;;;;5122350;28;20464;-60
2023/06/24 09:18:50;;;;;;;5.67;4.37;;;29.00;97.40;;;;;;5131607;28;20436;-57
2023/06/24 09:21:24;;;;;;;5.27;4.47;;;29.20;99.90;;;;;;5126398;28;20520;-59
2023/06/24 09:23:55;;;;;;;4.30;3.17;;;29.40;99.50;;;;;;5134987;28;20474;-54
2023/06/24 09:26:24;;;;;;;4.10;3.57;;;29.20;98.40;;;;;;5133995;28;20467;-56
2023/06/24 09:28:54;;;;;;;4.20;3.63;;;29.20;99.90;;;;;;5131586;28;20433;-58
2023/06/24 09:31:23;;;;;;;4.00;3.60;;;;;;;;;;5134735;28;20480;-58
2023/06/24 09:33:50;;;;;;;3.50;3.20;;;;;;;;;;5134294;28;20468;-55
2023/06/24 09:36:17;;;;;;;6.13;3.97;;;30.30;95.80;;;;;;5137454;28;20475;-54
2023/06/24 09:38:45;;;;;;;4.17;3.63;;;30.70;96.00;;;;;;5134423;28;20459;-52
2023/06/24 09:41:12;;;;;;;4.60;4.17;;;31.10;91.00;;;;;;5131410;28;20448;-57
2023/06/24 09:43:40;;;;;;;5.37;4.03;;;31.80;97.50;;;;;;5134108;28;20555;-57
2023/06/24 09:46:09;;;;;;;5.20;3.77;;;31.90;95.50;;;;;;5129843;28;20451;-57
2023/06/24 09:48:36;;;;;;;3.57;3.27;;;;;;;;;;5133811;28;20453;-56
2023/06/24 09:51:04;;;;;;;4.30;3.73;;;32.10;91.70;;;;;;5127936;28;20544;-57
2023/06/24 09:53:32;;;;;;;5.03;4.10;;;32.00;96.10;;;;;;5130107;28;20519;-55
2023/06/24 09:56:01;;;;;;;4.60;3.40;;;31.60;95.50;;;;;;5132009;28;20467;-58
2023/06/24 09:58:32;;;;;;;3.90;3.60;;;30.90;92.40;;;;;;5133089;28;20449;-58
2023/06/24 10:01:03;;;;;;;3.43;3.07;;;30.40;91.50;;;;;;5130813;28;20452;-59
2023/06/24 10:03:34;;;;;;;5.73;3.80;;;30.60;63.10;;;;;;5125629;28;20612;-58
2023/06/24 10:06:01;;;;;;;3.80;3.40;;;30.40;92.40;;;;;;5133486;27;20452;-59
2023/06/24 10:08:29;;;;;;;4.20;3.30;;;30.30;95.20;;;;;;5127011;27;20448;-60
2023/06/24 10:10:56;;;;;;;3.90;3.50;;;30.50;93.40;;;;;;5130686;28;20460;-59
2023/06/24 10:13:23;;;;;;;3.93;2.90;;;30.30;96.30;;;;;;5126352;28;20528;-59
2023/06/24 10:15:50;;;;;;;3.40;3.10;;;30.60;93.00;;;;;;5130598;28;20448;-59
2023/06/24 10:18:39;;;;;;;2.93;2.73;;;30.20;64.40;;;;;;5139408;27;20446;-54
2023/06/24 10:21:06;;;;;;;3.90;3.60;;;30.40;63.70;;;;;;5154040;27;20911;-59
2023/06/24 10:23:43;;;;;;;6.00;3.60;;;30.20;88.90;;;;;;5137809;27;20463;-59
2023/06/24 10:26:11;;;;;;;4.00;3.40;;;30.20;97.00;;;;;;5132548;27;20459;-60
2023/06/24 10:29:10;;;;;;;3.50;3.13;;;30.00;96.60;;;;;;5134027;27;20452;-59
2023/06/24 10:31:52;;;;;;;3.60;3.03;;;29.60;67.20;;;;;;5129341;28;20477;-59
2023/06/24 10:34:35;;;;;;;3.40;3.10;;;29.40;98.60;;;;;;5129639;28;20461;-59
2023/06/24 10:37:04;;;;;;;6.20;3.27;;;29.30;99.10;;;;;;5117577;28;20417;-60
2023/06/24 10:39:56;;;;;;;5.50;3.30;;;28.70;96.00;;;;;;5128412;28;20451;-60
2023/06/24 10:42:42;;;;;;;4.83;3.37;;;28.90;99.60;;;;;;5124611;28;20436;-60
2023/06/24 10:45:19;;;;;;;5.03;3.50;;;28.70;96.20;;;;;;5133752;28;20420;-56
2023/06/24 10:47:48;;;;;;;6.73;3.50;;;28.60;99.90;;;;;;5135107;28;20415;-60
2023/06/24 10:50:20;;;;;;;4.27;3.67;;;28.10;97.70;;;;;;5126820;28;20480;-58
2023/06/24 10:52:48;;;;;;;4.00;3.17;;;27.80;80.50;;;;;;5148883;27;20470;-60
2023/06/24 10:55:16;;;;;;;4.30;3.70;;;27.80;99.30;;;;;;5151013;27;20431;-58
2023/06/24 10:57:44;;;;;;;3.93;3.20;;;27.80;99.90;;;;;;5152341;27;20460;-54
2023/06/24 11:00:12;;;;;;;3.57;3.03;;;27.90;99.90;;;;;;5133827;28;20417;-59
2023/06/24 11:02:39;;;;;;;4.23;3.20;;;27.60;99.90;;;;;;5133367;28;20448;-53
2023/06/24 11:05:07;;;;;;;3.30;3.00;;;27.30;99.90;;;;;;5121545;28;20896;-59
2023/06/24 11:07:36;;;;;;;4.43;3.37;;;27.40;84.10;;;;;;5130851;28;20440;-58
2023/06/24 11:10:05;;;;;;;3.90;3.50;;;27.40;99.90;;;;;;5129163;28;20493;-57
2023/06/24 11:12:33;;;;;;;3.90;3.50;;;27.90;99.90;;;;;;5134243;28;20491;-53
2023/06/24 11:15:02;;;;;;;7.17;6.10;;;27.40;99.90;;;;;;5130570;28;20476;-56
2023/06/24 11:17:29;;;;;;;5.20;3.90;;;27.10;99.90;;;;;;5130288;28;20465;-58
2023/06/24 11:19:57;;;;;;;4.20;3.17;;;27.00;99.90;;;;;;5124174;28;20543;-56
2023/06/24 11:22:25;;;;;;;3.33;2.80;;;26.70;79.80;;;;;;5127849;28;20465;-58
2023/06/24 11:24:54;;;;;;;3.67;3.10;;;26.60;99.90;;;;;;5130818;28;20530;-55
2023/06/24 11:27:26;;;;;;;4.60;3.30;;;26.80;84.30;;;;;;5134338;28;20463;-57
2023/06/24 11:29:54;;;;;;;4.00;3.50;;;27.20;99.90;;;;;;5131622;28;20456;-59
2023/06/24 11:32:21;;;;;;;5.90;3.77;;;27.30;99.90;;;;;;5132450;28;20504;-60
2023/06/24 11:34:49;;;;;;;3.50;3.20;;;27.20;99.90;;;;;;5132281;28;20499;-58
2023/06/24 11:37:18;;;;;;;4.90;3.63;;;26.60;99.90;;;;;;5134105;28;20404;-58
2023/06/24 11:39:46;;;;;;;5.47;4.30;;;26.70;99.90;;;;;;5135457;28;20441;-58
2023/06/24 11:42:15;;;;;;;3.70;3.37;;;26.80;85.90;;;;;;5131216;28;20433;-59
2023/06/24 11:44:44;;;;;;;4.33;3.80;;;26.70;87.00;;;;;;5125400;28;20970;-59
2023/06/24 11:47:12;;;;;;;4.93;3.50;;;26.60;81.60;;;;;;5126470;28;20556;-59
2023/06/24 11:49:52;;;;;;;3.73;3.10;;;27.10;83.80;;;;;;5133956;28;20457;-62
2023/06/24 11:52:19;;;;;;;5.07;3.47;;;26.60;99.90;;;;;;5134913;28;20476;-60
2023/06/24 11:54:47;;;;;;;7.73;3.80;;;26.30;88.40;;;;;;5131708;28;20452;-59
2023/06/24 11:57:15;;;;;;;4.70;4.00;;;26.30;99.90;;;;;;5134527;28;20428;-54
2023/06/24 11:59:43;;;;;;;3.10;2.80;;;26.50;99.90;;;;;;5150368;28;20467;-59
2023/06/24 12:02:14;;;;;;;4.10;3.67;;;26.30;99.90;;;;;;5155254;28;20444;-60
2023/06/24 12:04:45;;;;;;;3.37;3.10;;;26.30;99.90;;;;;;5155255;28;20979;-55
2023/06/24 12:07:13;;;;;;;3.73;3.30;;;;;;;;;;5154289;28;20427;-61
2023/06/24 12:09:40;;;;;;;3.20;2.90;;;26.30;99.90;;;;;;5140900;28;20497;-57
2023/06/24 12:12:07;;;;;;;13.83;3.97;;;26.20;99.90;;;;;;5154469;28;20486;-59
2023/06/24 12:14:35;;;;;;;3.00;2.70;;;26.40;99.90;;;;;;5149337;27;20524;-58
2023/06/24 12:17:02;;;;;;;4.43;4.03;;;26.30;99.90;;;;;;5156532;27;20451;-59
2023/06/24 12:19:29;;;;;;;6.07;4.10;;;26.00;99.90;;;;;;5149918;27;20500;-59
2023/06/24 12:21:57;;;;;;;4.10;3.70;;;;;;;;;;5150362;27;20444;-58
2023/06/24 12:24:25;;;;;;;5.30;3.43;;;25.90;99.90;;;;;;5157351;27;20460;-55
2023/06/24 12:26:52;;;;;;;4.30;3.90;;;26.00;99.90;;;;;;5157336;27;21005;-60
2023/06/24 12:29:20;;;;;;;5.80;3.90;;;25.80;99.90;;;;;;5145236;27;20444;-62
2023/06/24 12:31:48;;;;;;;4.07;3.67;;;26.00;99.90;;;;;;5138879;28;20480;-61
2023/06/24 12:34:15;;;;;;;5.23;3.60;;;;;;;;;;5138416;28;20503;-60
2023/06/24 12:36:42;;;;;;;5.63;3.67;;;25.90;99.90;;;;;;5138459;28;20472;-57
2023/06/24 12:39:09;;;;;;;7.80;4.40;;;26.00;99.90;;;;;;5138704;28;20444;-61
2023/06/24 12:41:36;;;;;;;3.20;2.90;;;26.30;99.90;;;;;;5131324;28;20480;-59
2023/06/24 12:44:03;;;;;;;4.30;3.53;;;26.30;99.90;;;;;;5125071;28;20486;-59
2023/06/24 12:46:30;;;;;;;5.80;3.70;;;26.10;99.90;;;;;;5133128;28;20440;-60
2023/06/24 12:48:58;;;;;;;5.00;3.23;;;26.00;99.90;;;;;;5128838;28;20515;-57
2023/06/24 12:51:25;;;;;;;4.33;3.93;;;26.20;99.90;;;;;;5137056;28;20483;-60
2023/06/24 12:53:52;;;;;;;5.13;3.73;;;;;;;;;;5122569;28;20468;-60
2023/06/24 12:56:19;;;;;;;6.57;3.80;;;;;;;;;;5135301;28;20450;-59
2023/06/24 12:58:46;;;;;;;4.20;3.80;;;26.90;99.90;;;;;;5144055;27;20448;-57
2023/06/24 13:01:13;;;;;;;4.80;4.40;;;27.20;99.90;;;;;;5156713;27;20451;-59
2023/06/24 13:03:40;;;;;;;4.90;3.30;;;26.70;99.90;;;;;;5157018;27;20455;-57